الصفحة الرئيسية
METAR-TAF:

METAR-TAF

مطار :

Searle Field

وغالالا, نبراسكا, الولايات المتحدة

دائرة عرض: 41-07-11N, خط طول: 101-46-08W, ارتفاع: 999 متر

مراقبة الطقس الحالي

تاريخ ووقت الإصدار 26 دقيقة قبل الساعة 20:35UTC
ريح 12 عقدة من الغرب تتزايد حتى 18 عقدة
درجة الحرارة 9°درجة مئوية
الرطوبة 31%
ضغط 1026 hPa
الرؤية: 16.1 كم
سماء صافية

METAR: KOGA 152035Z AUTO 28012G18KT 10SM CLR 09/M07 A3029 RMK AO2 T00871067

زمن: 15:01 (21:01 UTC)


TAF: مفقودة

أرصاد الطقس والتوقعات من أكثر من 4000 مطار (تقارير الطقس للمطار METAR والتنبؤ بالطقس بالمطارTAF).

المحطات المتاحة هي النقط الصفراء والحمراء على الخريطة.

حرك المؤشر فوق النقطة لمعرفة اسم المحطة.

ثم انقر لمعرفة أرصاد وتوقعات الطقس.

لتغيير الخارطة: اضغط على الأزرار الخضراء مع رمز الصليب الأسود للتكبير. على الزر الأخضر مع شرطة للتصغير، أو على الأسهم الخضراء للخرائط المجاورة.


METAR-TAF: